Franconia, NH

10:30 AM EDT on September 17, 2014 (GMT -0400)
KNHBETHL5 | Change Station
CLOSE
Current Station
Personal Weather Station
Location: Bethlehem, NH
Elevation: 1667 ft
Nearby Weather Stations

Elev 1667 ft 44.26 °N, 71.70 °W | Updated 12 minutes ago

Partly Cloudy
Partly Cloudy
59.2 °F
Feels Like 59.2 °F
N
1.0
Wind Variable Wind from SSW
Gusts 5.0 mph

Today
High -- | Low -- °F
--% Chance of Precip.
Yesterday
High -- | Low -- °F
Precip. -- in
6:28 AM 6:53 PM
Waning Crescent, 35% visible
Pressure 30.02 in
Visibility 10.0 miles
Clouds Few 300 ft
Dew Point 50 °F
Humidity 72%
Rainfall 0.00 in
Snow Depth Not available.
UV 4 out of 12
Pollen 2.00 out of 12
Ozone Good
PM2.5 Good
Flu Activity Not available.
SPECI KHIE 171359Z AUTO 00000KT 10SM FEW003 11/08 A3002 RMK AO2 T01110083

More Conditions Fewer Conditions

Pressure 30.02 in
Visibility 10.0 miles
Clouds Few 300 ft
Dew Point 50 °F
Humidity 72%
Rainfall 0.00 in
Snow Depth Not available.
UV 4 out of 12
Pollen 2.00 out of 12
Ozone Good
PM2.5 Good
Flu Activity Not available.
SPECI KHIE 171359Z AUTO 00000KT 10SM FEW003 11/08 A3002 RMK AO2 T01110083

More Conditions Fewer Conditions

10-Day Weather Forecast

Almanac

Astronomy

Sep. 17, 2014 Rise Set
Actual Time 6:28 AM EDT 6:53 PM EDT
Civil Twilight 5:59 AM EDT 7:22 PM EDT
Nautical Twilight 5:24 AM EDT 7:56 PM EDT
Astronomical Twilight 4:49 AM EDT 8:32 PM EDT
Moon 12:16 AM EDT 3:10 PM EDT
Length of Visible Light 13h 23m
Length of Day
12h 25m
Tomorrow will be 3m 1s shorter.
Waning Crescent, 35% of the Moon is Illuminated
Today
Waning Crescent
Sep 24
New
Oct 1
First Quarter
Oct 8
Full
Oct 15
Last Quarter

Today's Extremes

State Highs State Lows

Community

WunderPhotos

Upload Photos

1,754,057 photos uploaded!

WunderBlogs® & News

By Dr. Jeff Masters
Director of Meteorology, Weather Underground
By Kari Strenfel
Meteorologist, Weather Underground
By Christopher C. Burt
Weather Historian, Weather Underground
September 17, 2014
September 17, 2014
September 17, 2014

Nearby

Air Quality

  Air Quality AQ Index Pollutant
Yesterday Good
OZONE
Yesterday Good
PM2.5
Current Good
PM2.5
Current Good
OZONE
Wednesday Good
PM2.5
Wednesday Good
OZONE

Snow Depth

Station Depth Elevation
No new snow has been reported.

Earthquake Activity

City Distance Mag. Time & Date
No recent earthquake activity has been reported nearby.
Minimum magnitude displayed is 2.5.

Coastal Water Temperatures

Place Temperature
No Stations Reporting

Nearby Weather Stations